createdAt,value
2022-11-01T00:02:00.002Z,31.25
2022-11-01T00:04:26.671Z,26.55
2022-11-01T00:06:53.479Z,26.48
2022-11-01T00:09:20.114Z,26.08
2022-11-01T00:11:46.657Z,28.73
2022-11-01T00:14:15.378Z,25.85
2022-11-01T00:16:42.237Z,27.08
2022-11-01T00:19:08.877Z,23.98
2022-11-01T00:21:35.392Z,28.90
2022-11-01T00:24:01.966Z,25.43
2022-11-01T00:26:29.618Z,23.17
2022-11-01T00:28:56.327Z,25.25
2022-11-01T00:31:23.231Z,26.52
2022-11-01T00:33:50.140Z,26.10
2022-11-01T00:36:16.684Z,30.03
2022-11-01T00:38:43.218Z,29.25
2022-11-01T00:41:09.957Z,27.38
2022-11-01T00:43:36.892Z,30.20
2022-11-01T00:46:04.147Z,28.13
2022-11-01T00:48:30.653Z,28.70
2022-11-01T00:50:57.200Z,29.65
2022-11-01T00:53:23.716Z,31.25
2022-11-01T00:55:50.244Z,35.45
2022-11-01T00:58:16.694Z,35.05
2022-11-01T01:00:43.234Z,37.37
2022-11-01T01:03:09.804Z,38.08
2022-11-01T01:05:36.667Z,39.15
2022-11-01T01:08:03.379Z,38.08
2022-11-01T01:10:29.850Z,40.55
2022-11-01T01:12:56.323Z,52.70
2022-11-01T01:15:22.988Z,49.42
2022-11-01T01:17:49.647Z,49.72
2022-11-01T01:20:16.273Z,48.35
2022-11-01T01:22:42.902Z,50.15
2022-11-01T01:25:10.587Z,51.47
2022-11-01T01:27:37.279Z,47.88
2022-11-01T01:30:05.597Z,48.38
2022-11-01T01:32:32.160Z,54.58
2022-11-01T01:34:58.758Z,53.58
2022-11-01T01:37:25.480Z,46.57
2022-11-01T01:39:52.042Z,40.30
2022-11-01T01:42:35.645Z,40.42
2022-11-01T01:45:05.425Z,40.80
2022-11-01T01:47:42.500Z,47.05
2022-11-01T01:50:18.870Z,46.57
2022-11-01T01:52:53.476Z,40.90
2022-11-01T01:55:24.575Z,40.10
2022-11-01T01:57:51.726Z,37.78
2022-11-01T02:00:18.663Z,33.88
2022-11-01T02:02:45.344Z,38.40
2022-11-01T02:05:40.830Z,43.35
2022-11-01T02:08:07.764Z,37.97
2022-11-01T02:10:34.844Z,38.85
2022-11-01T02:13:01.391Z,39.20
2022-11-01T02:15:37.219Z,34.50
2022-11-01T02:18:16.289Z,35.05
2022-11-01T02:21:00.167Z,38.33
2022-11-01T02:23:45.413Z,33.17
2022-11-01T02:26:30.560Z,37.45
2022-11-01T02:29:40.841Z,37.97
2022-11-01T02:32:20.019Z,36.00
2022-11-01T02:34:58.649Z,39.83
2022-11-01T02:37:30.616Z,37.00
2022-11-01T02:40:03.198Z,32.85
2022-11-01T02:42:37.226Z,30.80
2022-11-01T02:45:11.787Z,33.75
2022-11-01T02:47:40.268Z,25.08
2022-11-01T02:50:09.560Z,28.63
2022-11-01T02:52:40.716Z,25.48
2022-11-01T02:55:35.417Z,28.27
2022-11-01T02:58:12.907Z,27.73
2022-11-01T03:00:40.822Z,24.88
2022-11-01T03:03:24.012Z,25.90
2022-11-01T03:06:13.474Z,28.77
2022-11-01T03:08:46.802Z,28.70
2022-11-01T03:11:22.491Z,25.20
2022-11-01T03:14:21.347Z,30.00
2022-11-01T03:17:02.944Z,27.17
2022-11-01T03:19:44.250Z,34.63
2022-11-01T03:22:15.225Z,31.97
2022-11-01T03:25:03.454Z,25.85
2022-11-01T03:27:33.047Z,28.65
2022-11-01T03:30:13.942Z,30.15
2022-11-01T03:32:53.948Z,25.88
2022-11-01T03:35:27.345Z,27.23
2022-11-01T03:37:58.944Z,30.40
2022-11-01T03:40:28.831Z,29.50
2022-11-01T03:43:01.276Z,30.70
2022-11-01T03:45:30.298Z,26.17
2022-11-01T03:47:56.984Z,27.00
2022-11-01T03:50:26.735Z,25.20
2022-11-01T03:52:53.230Z,25.88
2022-11-01T03:55:20.950Z,28.52
2022-11-01T03:57:58.167Z,29.00
2022-11-01T04:00:30.261Z,22.47
2022-11-01T04:02:58.171Z,23.27
2022-11-01T04:05:26.850Z,27.08
2022-11-01T04:07:53.427Z,28.48
2022-11-01T04:10:21.692Z,24.15
2022-11-01T04:12:49.903Z,26.97
2022-11-01T04:15:36.310Z,28.02
2022-11-01T04:18:24.337Z,28.80
2022-11-01T04:20:52.459Z,28.05
2022-11-01T04:23:19.169Z,26.45
2022-11-01T04:25:49.008Z,31.17
2022-11-01T04:28:15.944Z,25.25
2022-11-01T04:30:43.735Z,27.60
2022-11-01T04:33:10.368Z,32.40
2022-11-01T04:35:38.087Z,25.67
2022-11-01T04:38:05.724Z,27.93
2022-11-01T04:40:33.988Z,29.15
2022-11-01T04:43:00.697Z,35.28
2022-11-01T04:45:27.315Z,36.90
2022-11-01T04:48:13.741Z,29.17
2022-11-01T04:50:41.198Z,35.17
2022-11-01T04:53:08.304Z,30.33
2022-11-01T04:55:35.053Z,28.30
2022-11-01T04:58:01.738Z,30.02
2022-11-01T05:00:28.225Z,29.10
2022-11-01T05:03:05.272Z,30.53
2022-11-01T05:05:32.465Z,38.92
2022-11-01T05:08:09.945Z,33.53
2022-11-01T05:10:39.051Z,31.80
2022-11-01T05:13:06.024Z,31.40
2022-11-01T05:15:32.996Z,29.33
2022-11-01T05:17:59.957Z,28.92
2022-11-01T05:20:26.470Z,25.90
2022-11-01T05:22:52.948Z,32.30
2022-11-01T05:25:19.420Z,30.67
2022-11-01T05:27:45.900Z,31.77
2022-11-01T05:30:14.048Z,31.85
2022-11-01T05:32:40.543Z,30.13
2022-11-01T05:35:07.185Z,34.38
2022-11-01T05:37:35.729Z,31.08
2022-11-01T05:40:03.192Z,26.47
2022-11-01T05:42:29.698Z,29.38
2022-11-01T05:44:56.178Z,26.13
2022-11-01T05:47:22.644Z,28.48
2022-11-01T05:49:49.114Z,24.02
2022-11-01T05:52:15.566Z,27.30
2022-11-01T05:54:42.020Z,22.63
2022-11-01T05:57:08.464Z,22.92
2022-11-01T05:59:34.960Z,22.45
2022-11-01T06:02:01.620Z,24.23
2022-11-01T06:04:46.515Z,24.63
2022-11-01T06:07:13.047Z,24.98
2022-11-01T06:09:39.521Z,22.75
2022-11-01T06:12:06.092Z,24.27
2022-11-01T06:14:32.624Z,22.17
2022-11-01T06:16:59.158Z,21.73
2022-11-01T06:19:25.654Z,22.35
2022-11-01T06:21:52.141Z,19.95
2022-11-01T06:24:18.697Z,19.75
2022-11-01T06:26:45.238Z,19.00
2022-11-01T06:29:11.700Z,26.57
2022-11-01T06:31:38.155Z,24.25
2022-11-01T06:34:04.806Z,24.13
2022-11-01T06:36:31.273Z,23.48
2022-11-01T06:38:57.803Z,24.30
2022-11-01T06:41:24.280Z,20.20
2022-11-01T06:43:50.839Z,23.48
2022-11-01T06:46:17.311Z,24.30
2022-11-01T06:48:43.805Z,21.52
2022-11-01T06:51:10.726Z,18.80
2022-11-01T06:53:37.187Z,21.13
2022-11-01T06:56:03.747Z,24.70
2022-11-01T06:58:30.321Z,20.08
2022-11-01T07:00:56.901Z,18.35
2022-11-01T07:03:23.441Z,15.93
2022-11-01T07:05:50.352Z,19.37
2022-11-01T07:08:16.948Z,19.98
2022-11-01T07:10:44.200Z,18.35
2022-11-01T07:13:12.681Z,17.10
2022-11-01T07:15:39.463Z,18.50
2022-11-01T07:18:08.299Z,14.17
2022-11-01T07:20:41.496Z,15.88
2022-11-01T07:23:17.280Z,17.95
2022-11-01T07:25:44.137Z,14.93
2022-11-01T07:28:11.338Z,15.98
2022-11-01T07:30:38.817Z,16.27
2022-11-01T07:33:05.873Z,16.05
2022-11-01T07:35:33.732Z,15.50
2022-11-01T07:38:02.869Z,15.43
2022-11-01T07:40:31.755Z,13.05
2022-11-01T07:43:00.116Z,27.33
2022-11-01T07:45:28.921Z,14.32
2022-11-01T07:48:06.592Z,14.20
2022-11-01T07:50:34.143Z,16.73
2022-11-01T07:53:02.622Z,16.17
2022-11-01T07:55:29.457Z,12.63
2022-11-01T07:57:56.058Z,14.88
2022-11-01T08:00:22.811Z,11.90
2022-11-01T08:02:49.835Z,11.27
2022-11-01T08:05:16.614Z,11.10
2022-11-01T08:07:43.221Z,13.17
2022-11-01T08:10:12.795Z,16.48
2022-11-01T08:12:39.427Z,15.73
2022-11-01T08:15:06.820Z,12.38
2022-11-01T08:17:34.575Z,11.35
2022-11-01T08:20:01.211Z,15.10
2022-11-01T08:22:28.069Z,12.43
2022-11-01T08:24:54.535Z,12.05
2022-11-01T08:27:21.017Z,14.00
2022-11-01T08:29:47.534Z,13.50
2022-11-01T08:32:14.020Z,12.83
2022-11-01T08:34:40.504Z,13.30
2022-11-01T08:37:06.986Z,10.85
2022-11-01T08:39:33.484Z,11.38
2022-11-01T08:42:00.491Z,9.40
2022-11-01T08:44:27.050Z,9.40
2022-11-01T08:46:55.011Z,11.90
2022-11-01T08:49:21.516Z,8.45
2022-11-01T08:51:47.999Z,7.82
2022-11-01T08:54:14.484Z,12.13
2022-11-01T08:56:41.047Z,9.10
2022-11-01T08:59:07.706Z,8.48
2022-11-01T09:01:35.029Z,8.50
2022-11-01T09:04:02.080Z,7.28
2022-11-01T09:06:33.775Z,11.93
2022-11-01T09:09:02.971Z,10.13
2022-11-01T09:11:32.783Z,8.57
2022-11-01T09:13:59.712Z,8.77
2022-11-01T09:16:26.246Z,8.93
2022-11-01T09:18:52.848Z,10.00
2022-11-01T09:21:21.860Z,7.63
2022-11-01T09:23:48.456Z,10.15
2022-11-01T09:26:15.174Z,9.77
2022-11-01T09:28:41.941Z,9.32
2022-11-01T09:31:20.545Z,4.95
2022-11-01T09:33:47.987Z,7.53
2022-11-01T09:36:14.790Z,8.38
2022-11-01T09:38:46.132Z,8.02
2022-11-01T09:41:26.213Z,5.78
2022-11-01T09:43:57.763Z,4.28
2022-11-01T09:46:28.564Z,7.30
2022-11-01T09:48:57.087Z,6.13
2022-11-01T09:51:37.593Z,6.72
2022-11-01T09:54:24.525Z,7.07
2022-11-01T09:57:16.719Z,4.65
2022-11-01T10:00:02.814Z,4.70
2022-11-01T10:06:04.285Z,4.68
2022-11-01T10:08:53.522Z,4.32
2022-11-01T10:11:33.762Z,3.95
2022-11-01T10:14:12.547Z,3.23
2022-11-01T10:16:59.139Z,3.75
2022-11-01T10:19:30.381Z,2.13
2022-11-01T10:22:02.927Z,3.20
2022-11-01T10:24:43.870Z,3.33
2022-11-01T10:27:33.087Z,5.30
2022-11-01T10:30:11.013Z,5.13
2022-11-01T10:32:45.663Z,1.98
2022-11-01T10:35:27.316Z,4.03
2022-11-01T10:38:22.787Z,2.10
2022-11-01T10:40:56.827Z,2.17
2022-11-01T10:43:25.727Z,4.65
2022-11-01T10:45:55.839Z,5.68
2022-11-01T10:48:31.119Z,3.30
2022-11-01T10:51:01.103Z,3.35
2022-11-01T10:53:34.664Z,3.27
2022-11-01T10:56:09.000Z,3.75
2022-11-01T10:58:49.659Z,5.35
2022-11-01T11:01:21.876Z,5.00
2022-11-01T11:03:50.135Z,3.33
2022-11-01T11:06:17.315Z,3.30
2022-11-01T11:08:48.069Z,4.30
2022-11-01T11:11:16.726Z,1.83
2022-11-01T11:13:52.755Z,1.70
2022-11-01T11:16:44.510Z,3.47
2022-11-01T11:19:11.211Z,2.73
2022-11-01T11:21:37.823Z,3.25
2022-11-01T11:24:04.534Z,3.00
2022-11-01T11:26:39.063Z,2.40
2022-11-01T11:29:06.119Z,1.77
2022-11-01T11:31:34.815Z,1.67
2022-11-01T11:34:16.594Z,2.63
2022-11-01T11:36:46.628Z,2.72
2022-11-01T11:39:31.678Z,6.85
2022-11-01T11:42:19.077Z,3.47
2022-11-01T11:44:51.878Z,2.30
2022-11-01T11:47:26.149Z,2.72
2022-11-01T11:49:58.432Z,3.45
2022-11-01T11:52:38.938Z,5.38
2022-11-01T11:55:07.753Z,0.75
2022-11-01T11:57:34.342Z,5.83
2022-11-01T12:00:05.293Z,2.55
2022-11-01T12:02:40.764Z,2.78
2022-11-01T12:05:14.065Z,2.85
2022-11-01T12:07:52.644Z,1.83
2022-11-01T12:10:31.617Z,2.53
2022-11-01T12:12:58.913Z,2.75
2022-11-01T12:15:36.932Z,2.83
2022-11-01T12:18:18.582Z,2.50
2022-11-01T12:20:52.246Z,3.20
2022-11-01T12:23:30.733Z,1.80
2022-11-01T12:25:59.901Z,4.05
2022-11-01T12:28:32.588Z,2.17
2022-11-01T12:31:08.293Z,3.75
2022-11-01T12:33:47.319Z,4.00
2022-11-01T12:36:15.295Z,6.00
2022-11-01T12:38:43.923Z,2.95
2022-11-01T12:41:31.688Z,4.28
2022-11-01T12:44:01.707Z,2.88
2022-11-01T12:46:35.738Z,2.47
2022-11-01T12:49:14.346Z,3.07
2022-11-01T12:51:48.587Z,3.38
2022-11-01T12:54:38.091Z,2.80
2022-11-01T12:57:14.316Z,3.17
2022-11-01T12:59:42.582Z,2.17
2022-11-01T13:02:22.849Z,2.23
2022-11-01T13:05:01.466Z,2.83
2022-11-01T13:07:54.798Z,3.50
2022-11-01T13:13:31.394Z,3.05
2022-11-01T13:16:08.885Z,4.93
2022-11-01T13:19:03.749Z,2.65
2022-11-01T13:21:53.463Z,4.18
2022-11-01T13:24:31.942Z,2.25
2022-11-01T13:27:10.488Z,1.30
2022-11-01T13:29:45.491Z,1.07
2022-11-01T13:32:36.092Z,2.30
2022-11-01T13:35:34.548Z,2.22
2022-11-01T13:38:12.767Z,2.33
2022-11-01T13:41:01.179Z,5.93
2022-11-01T13:43:39.167Z,3.27
2022-11-01T13:46:16.853Z,2.15
2022-11-01T13:48:53.956Z,1.55
2022-11-01T13:51:45.426Z,1.38
2022-11-01T13:54:22.563Z,1.58
2022-11-01T13:57:00.971Z,2.57
2022-11-01T13:59:45.282Z,2.22
2022-11-01T14:02:24.018Z,3.80
2022-11-01T14:04:57.586Z,6.55
2022-11-01T14:07:25.145Z,4.25
2022-11-01T14:09:55.460Z,11.33
2022-11-01T14:12:35.890Z,4.95
2022-11-01T14:15:11.667Z,6.53
2022-11-01T14:17:39.656Z,2.38
2022-11-01T14:20:08.357Z,2.78
2022-11-01T14:22:35.231Z,3.13
2022-11-01T14:25:10.961Z,3.00
2022-11-01T14:27:40.475Z,2.40
2022-11-01T14:30:15.342Z,5.70
2022-11-01T14:32:52.374Z,5.72
2022-11-01T14:35:27.396Z,5.83
2022-11-01T14:37:57.323Z,1.23
2022-11-01T14:40:42.468Z,3.97
2022-11-01T14:43:25.394Z,3.15
2022-11-01T14:45:59.373Z,2.60
2022-11-01T14:48:43.659Z,3.00
2022-11-01T14:51:32.552Z,2.85
2022-11-01T14:54:19.052Z,2.20
2022-11-01T14:56:52.081Z,2.63
2022-11-01T14:59:37.951Z,6.00
2022-11-01T15:02:07.254Z,2.20
2022-11-01T15:04:41.064Z,3.67
2022-11-01T15:07:38.028Z,2.70
2022-11-01T15:10:10.906Z,3.38
2022-11-01T15:12:55.122Z,3.63
2022-11-01T15:15:35.214Z,3.10
2022-11-01T15:18:14.205Z,3.65
2022-11-01T15:20:44.724Z,2.35
2022-11-01T15:23:20.514Z,2.00
2022-11-01T15:25:54.720Z,2.42
2022-11-01T15:28:55.565Z,3.87
2022-11-01T15:31:22.444Z,4.00
2022-11-01T15:34:22.337Z,6.53
2022-11-01T15:36:49.181Z,3.75
2022-11-01T15:39:23.021Z,4.85
2022-11-01T15:41:50.780Z,4.07
2022-11-01T15:44:22.905Z,3.03
2022-11-01T15:46:50.869Z,6.40
2022-11-01T15:49:20.779Z,4.13
2022-11-01T15:51:51.942Z,6.25
2022-11-01T15:54:40.925Z,2.93
2022-11-01T15:57:36.131Z,8.07
2022-11-01T16:00:29.475Z,5.78
2022-11-01T16:03:01.746Z,3.67
2022-11-01T16:05:31.942Z,3.03
2022-11-01T16:07:59.218Z,3.20
2022-11-01T16:10:28.558Z,3.90
2022-11-01T16:12:56.694Z,3.17
2022-11-01T16:15:28.452Z,10.40
2022-11-01T16:17:59.123Z,4.63
2022-11-01T16:20:40.814Z,4.70
2022-11-01T16:23:08.923Z,5.65
2022-11-01T16:25:38.022Z,6.05
2022-11-01T16:28:10.578Z,5.13
2022-11-01T16:30:51.127Z,12.00
2022-11-01T16:33:33.687Z,6.55
2022-11-01T16:36:18.258Z,5.20
2022-11-01T16:38:46.554Z,5.35
2022-11-01T16:41:37.954Z,5.43
2022-11-01T16:44:15.989Z,5.63
2022-11-01T16:46:42.816Z,3.92
2022-11-01T16:49:15.361Z,6.70
2022-11-01T16:51:42.130Z,8.40
2022-11-01T16:54:10.336Z,3.28
2022-11-01T16:56:49.258Z,1.70
2022-11-01T16:59:25.044Z,5.20
2022-11-01T17:01:54.931Z,7.55
2022-11-01T17:04:22.620Z,6.13
2022-11-01T17:06:49.598Z,6.55
2022-11-01T17:09:18.445Z,5.53
2022-11-01T17:11:50.731Z,4.78
2022-11-01T17:14:18.857Z,7.25
2022-11-01T17:16:47.167Z,5.63
2022-11-01T17:19:21.781Z,4.45
2022-11-01T17:21:50.982Z,7.93
2022-11-01T17:24:21.444Z,3.22
2022-11-01T17:26:49.317Z,3.00
2022-11-01T17:29:16.080Z,3.78
2022-11-01T17:31:42.632Z,5.65
2022-11-01T17:34:09.174Z,3.87
2022-11-01T17:36:36.431Z,5.53
2022-11-01T17:39:03.648Z,5.75
2022-11-01T17:41:30.459Z,5.88
2022-11-01T17:43:59.518Z,6.57
2022-11-01T17:46:26.255Z,5.20
2022-11-01T17:48:52.926Z,4.55
2022-11-01T17:51:19.714Z,5.47
2022-11-01T17:53:46.288Z,6.97
2022-11-01T17:56:12.776Z,3.67
2022-11-01T17:58:39.303Z,3.90
2022-11-01T18:01:07.914Z,2.88
2022-11-01T18:03:34.546Z,8.27
2022-11-01T18:06:01.264Z,29.63
2022-11-01T18:08:33.472Z,10.02
2022-11-01T18:11:31.024Z,3.73
2022-11-01T18:14:05.770Z,2.25
2022-11-01T18:16:50.315Z,3.00
2022-11-01T18:19:25.501Z,2.47
2022-11-01T18:22:07.120Z,5.68
2022-11-01T18:24:52.898Z,2.17
2022-11-01T18:27:37.441Z,9.88
2022-11-01T18:30:20.016Z,7.00
2022-11-01T18:33:04.390Z,7.88
2022-11-01T18:36:04.269Z,4.90
2022-11-01T18:39:12.473Z,7.57
2022-11-01T18:41:39.447Z,7.47
2022-11-01T18:44:10.848Z,8.75
2022-11-01T18:46:45.478Z,3.83
2022-11-01T18:49:12.738Z,3.78
2022-11-01T18:51:39.418Z,5.03
2022-11-01T18:54:08.968Z,5.72
2022-11-01T18:56:38.207Z,3.22
2022-11-01T18:59:13.057Z,3.85
2022-11-01T19:01:40.576Z,8.57
2022-11-01T19:04:24.863Z,9.33
2022-11-01T19:06:56.595Z,6.68
2022-11-01T19:09:25.608Z,7.63
2022-11-01T19:12:01.700Z,6.53
2022-11-01T19:14:28.811Z,4.05
2022-11-01T19:16:56.375Z,6.23
2022-11-01T19:19:22.968Z,5.15
2022-11-01T19:21:49.515Z,11.48
2022-11-01T19:24:32.337Z,3.67
2022-11-01T19:26:59.213Z,6.75
2022-11-01T19:29:29.439Z,6.40
2022-11-01T19:32:01.883Z,5.13
2022-11-01T19:34:38.279Z,5.55
2022-11-01T19:37:19.748Z,6.22
2022-11-01T19:39:46.983Z,5.75
2022-11-01T19:42:29.959Z,3.80
2022-11-01T19:44:59.324Z,2.88
2022-11-01T19:47:25.773Z,12.07
2022-11-01T19:49:52.313Z,8.90
2022-11-01T19:52:24.415Z,3.92
2022-11-01T19:54:53.178Z,5.77
2022-11-01T19:57:46.124Z,5.20
2022-11-01T20:00:18.217Z,3.15
2022-11-01T20:02:45.648Z,6.35
2022-11-01T20:05:34.054Z,3.40
2022-11-01T20:08:14.851Z,5.90
2022-11-01T20:10:41.481Z,4.60
2022-11-01T20:13:08.048Z,5.22
2022-11-01T20:15:34.508Z,2.63
2022-11-01T20:18:03.668Z,7.05
2022-11-01T20:20:31.858Z,67.43
2022-11-01T20:23:20.409Z,14.15
2022-11-01T20:25:45.265Z,6.63
2022-11-01T20:28:11.748Z,5.43
2022-11-01T20:30:38.207Z,4.15
2022-11-01T20:33:05.083Z,4.43
2022-11-01T20:35:31.757Z,6.25
2022-11-01T20:37:58.717Z,5.07
2022-11-01T20:40:25.292Z,4.30
2022-11-01T20:42:52.513Z,5.93
2022-11-01T20:45:19.073Z,8.80
2022-11-01T20:47:46.619Z,7.78
2022-11-01T20:50:15.874Z,5.15
2022-11-01T20:52:42.776Z,5.45
2022-11-01T20:55:11.021Z,6.13
2022-11-01T20:57:37.852Z,8.20
2022-11-01T21:00:06.267Z,11.10
2022-11-01T21:02:32.815Z,15.82
2022-11-01T21:05:11.704Z,12.77
2022-11-01T21:07:45.100Z,11.68
2022-11-01T21:10:25.812Z,15.33
2022-11-01T21:12:52.901Z,16.33
2022-11-01T21:15:34.148Z,15.82
2022-11-01T21:18:06.777Z,17.42
2022-11-01T21:20:39.672Z,12.05
2022-11-01T21:23:21.477Z,11.97
2022-11-01T21:25:53.784Z,13.90
2022-11-01T21:28:35.252Z,15.52
2022-11-01T21:31:21.463Z,11.68
2022-11-01T21:33:53.739Z,11.23
2022-11-01T21:36:20.230Z,9.07
2022-11-01T21:38:49.349Z,12.43
2022-11-01T21:41:31.608Z,12.40
2022-11-01T21:44:11.602Z,10.65
2022-11-01T21:46:38.110Z,16.38
2022-11-01T21:49:22.100Z,36.27
2022-11-01T21:51:48.588Z,24.95
2022-11-01T21:54:15.372Z,15.32
2022-11-01T21:56:42.213Z,13.05
2022-11-01T21:59:08.715Z,9.75
2022-11-01T22:01:35.797Z,10.07
2022-11-01T22:04:02.930Z,9.73
2022-11-01T22:06:29.402Z,9.15
2022-11-01T22:08:55.877Z,9.75
2022-11-01T22:11:23.847Z,13.63
2022-11-01T22:13:50.408Z,9.57
2022-11-01T22:16:16.935Z,17.33
2022-11-01T22:18:43.473Z,14.48
2022-11-01T22:21:09.921Z,19.63
2022-11-01T22:23:36.445Z,14.70
2022-11-01T22:26:02.956Z,11.67
2022-11-01T22:28:29.713Z,13.10
2022-11-01T22:30:56.192Z,16.58
2022-11-01T22:33:22.672Z,20.67
2022-11-01T22:35:49.361Z,16.88
2022-11-01T22:38:19.288Z,13.90
2022-11-01T22:40:53.597Z,11.07
2022-11-01T22:43:20.292Z,16.42
2022-11-01T22:45:46.752Z,20.83
2022-11-01T22:48:18.823Z,14.38
2022-11-01T22:50:46.033Z,11.87
2022-11-01T22:53:19.758Z,12.90
2022-11-01T22:55:49.308Z,12.98
2022-11-01T22:58:24.650Z,12.52
2022-11-01T23:00:51.114Z,15.75
2022-11-01T23:03:31.561Z,10.50
2022-11-01T23:06:01.995Z,13.10
2022-11-01T23:08:35.113Z,10.55
2022-11-01T23:11:01.683Z,15.05
2022-11-01T23:13:55.336Z,18.50
2022-11-01T23:16:31.498Z,16.63
2022-11-01T23:19:00.069Z,17.38
2022-11-01T23:21:27.491Z,16.15
2022-11-01T23:23:54.387Z,14.60
2022-11-01T23:26:22.607Z,12.35
2022-11-01T23:28:53.012Z,9.20
2022-11-01T23:31:20.510Z,12.93
2022-11-01T23:33:48.720Z,13.15
2022-11-01T23:36:27.319Z,10.93
2022-11-01T23:41:36.071Z,15.93
2022-11-01T23:44:30.685Z,12.82
2022-11-01T23:47:02.275Z,15.25
2022-11-01T23:49:31.722Z,16.35
2022-11-01T23:52:00.188Z,22.42
2022-11-01T23:54:43.499Z,14.33
2022-11-01T23:57:19.768Z,10.50
2022-11-01T23:59:50.692Z,14.07
